createdAt,value
2023-04-01T00:01:01.343Z,4.63
2023-04-01T00:03:46.600Z,4.60
2023-04-01T00:06:32.200Z,4.57
2023-04-01T00:09:17.694Z,5.15
2023-04-01T00:12:03.083Z,4.53
2023-04-01T00:14:48.663Z,5.32
2023-04-01T00:17:34.307Z,4.65
2023-04-01T00:20:19.824Z,4.20
2023-04-01T00:23:06.275Z,4.07
2023-04-01T00:30:38.065Z,3.85
2023-04-01T00:33:23.699Z,3.42
2023-04-01T00:36:18.531Z,3.65
2023-04-01T00:39:04.080Z,3.47
2023-04-01T00:41:49.720Z,3.15
2023-04-01T00:44:35.597Z,3.22
2023-04-01T00:47:22.137Z,2.58
2023-04-01T00:50:08.245Z,2.53
2023-04-01T00:52:54.483Z,3.25
2023-04-01T00:55:44.946Z,2.30
2023-04-01T00:58:35.821Z,2.70
2023-04-01T01:01:25.095Z,2.78
2023-04-01T01:04:27.581Z,3.55
2023-04-01T01:07:45.899Z,3.67
2023-04-01T01:10:35.067Z,6.07
2023-04-01T01:13:40.265Z,4.40
2023-04-01T01:16:31.690Z,4.63
2023-04-01T01:19:36.513Z,4.05
2023-04-01T01:22:57.968Z,4.72
2023-04-01T01:26:06.819Z,4.53
2023-04-01T01:28:55.436Z,4.05
2023-04-01T01:32:02.165Z,4.18
2023-04-01T01:35:07.266Z,4.00
2023-04-01T01:37:58.665Z,4.85
2023-04-01T01:40:49.626Z,4.00
2023-04-01T01:43:41.209Z,3.70
2023-04-01T01:46:29.228Z,3.47
2023-04-01T01:49:16.650Z,3.85
2023-04-01T01:52:02.348Z,4.45
2023-04-01T01:54:52.957Z,6.72
2023-04-01T01:57:40.701Z,8.95
2023-04-01T02:00:34.817Z,7.38
2023-04-01T02:03:23.930Z,7.30
2023-04-01T02:06:16.954Z,7.82
2023-04-01T02:09:07.845Z,7.60
2023-04-01T02:12:06.458Z,7.13
2023-04-01T02:15:09.155Z,8.30
2023-04-01T02:17:55.790Z,10.80
2023-04-01T02:20:42.994Z,9.98
2023-04-01T02:23:29.650Z,9.07
2023-04-01T02:26:16.085Z,9.80
2023-04-01T02:29:03.648Z,9.30
2023-04-01T02:31:51.553Z,8.18
2023-04-01T02:34:37.972Z,9.05
2023-04-01T02:37:23.905Z,8.60
2023-04-01T02:40:12.337Z,9.25
2023-04-01T02:42:57.745Z,9.48
2023-04-01T02:45:44.353Z,8.63
2023-04-01T02:48:30.486Z,8.25
2023-04-01T02:51:17.501Z,8.38
2023-04-01T02:54:04.368Z,8.88
2023-04-01T02:56:49.921Z,8.77
2023-04-01T02:59:35.531Z,8.93
2023-04-01T03:02:20.875Z,10.30
2023-04-01T03:05:06.915Z,10.18
2023-04-01T03:07:52.266Z,10.55
2023-04-01T03:10:37.512Z,8.80
2023-04-01T03:13:22.764Z,9.20
2023-04-01T03:16:08.400Z,8.68
2023-04-01T03:18:56.283Z,8.48
2023-04-01T03:21:41.414Z,7.65
2023-04-01T03:24:26.983Z,8.73
2023-04-01T03:27:12.612Z,8.82
2023-04-01T03:29:57.918Z,8.25
2023-04-01T03:32:43.293Z,7.60
2023-04-01T03:35:29.746Z,7.70
2023-04-01T03:38:16.578Z,7.53
2023-04-01T03:41:02.244Z,7.85
2023-04-01T03:43:48.356Z,7.85
2023-04-01T03:46:34.849Z,7.28
2023-04-01T03:49:20.419Z,7.45
2023-04-01T03:52:09.066Z,8.13
2023-04-01T03:54:54.512Z,7.30
2023-04-01T03:57:39.941Z,8.02
2023-04-01T04:00:34.702Z,7.50
2023-04-01T04:03:21.100Z,8.10
2023-04-01T04:06:07.020Z,7.95
2023-04-01T04:08:52.313Z,8.30
2023-04-01T04:11:37.754Z,8.98
2023-04-01T04:14:24.532Z,8.60
2023-04-01T04:17:17.080Z,8.70
2023-04-01T04:20:03.994Z,8.05
2023-04-01T04:22:49.326Z,9.07
2023-04-01T04:25:34.820Z,8.88
2023-04-01T04:28:20.357Z,8.75
2023-04-01T04:31:07.219Z,8.50
2023-04-01T04:33:54.204Z,8.43
2023-04-01T04:36:39.978Z,8.13
2023-04-01T04:39:25.765Z,8.48
2023-04-01T04:42:11.056Z,8.20
2023-04-01T04:44:56.511Z,8.13
2023-04-01T04:47:42.245Z,8.20
2023-04-01T04:50:27.620Z,7.97
2023-04-01T04:53:13.807Z,7.60
2023-04-01T04:55:59.617Z,7.45
2023-04-01T04:58:58.328Z,8.10
2023-04-01T05:01:51.382Z,7.20
2023-04-01T05:04:37.593Z,8.27
2023-04-01T05:07:24.598Z,7.82
2023-04-01T05:10:10.517Z,7.93
2023-04-01T05:12:55.918Z,8.88
2023-04-01T05:15:42.454Z,7.53
2023-04-01T05:18:27.837Z,7.60
2023-04-01T05:21:15.697Z,7.85
2023-04-01T05:24:01.321Z,8.57
2023-04-01T05:26:47.217Z,8.70
2023-04-01T05:29:33.489Z,9.02
2023-04-01T05:32:23.609Z,8.02
2023-04-01T05:35:09.337Z,9.35
2023-04-01T05:37:54.685Z,9.18
2023-04-01T05:40:40.713Z,8.85
2023-04-01T05:43:26.278Z,9.45
2023-04-01T05:46:13.452Z,8.95
2023-04-01T05:49:08.687Z,9.70
2023-04-01T05:51:54.786Z,9.80
2023-04-01T05:54:40.115Z,9.43
2023-04-01T05:57:25.683Z,9.30
2023-04-01T06:00:11.722Z,9.73
2023-04-01T06:03:01.073Z,10.00
2023-04-01T06:05:46.706Z,10.10
2023-04-01T06:08:32.961Z,11.18
2023-04-01T06:11:24.651Z,10.40
2023-04-01T06:14:36.319Z,10.18
2023-04-01T06:17:47.343Z,12.10
2023-04-01T06:20:47.866Z,11.00
2023-04-01T06:24:12.944Z,11.20
2023-04-01T06:27:28.110Z,11.25
2023-04-01T06:30:28.598Z,10.73
2023-04-01T06:33:29.795Z,11.05
2023-04-01T06:36:56.006Z,10.02
2023-04-01T06:40:05.931Z,8.95
2023-04-01T06:43:20.940Z,8.75
2023-04-01T06:47:06.008Z,8.88
2023-04-01T06:50:26.411Z,9.13
2023-04-01T06:54:22.589Z,10.45
2023-04-01T06:57:39.761Z,11.43
2023-04-01T07:00:33.150Z,11.35
2023-04-01T07:03:35.959Z,11.07
2023-04-01T07:06:38.942Z,12.23
2023-04-01T07:09:29.372Z,13.38
2023-04-01T07:12:34.950Z,13.18
2023-04-01T07:15:47.079Z,13.10
2023-04-01T07:18:39.778Z,12.10
2023-04-01T07:21:36.586Z,12.05
2023-04-01T07:24:33.978Z,13.45
2023-04-01T07:27:25.306Z,13.55
2023-04-01T07:30:21.211Z,11.85
2023-04-01T07:33:29.197Z,12.05
2023-04-01T07:36:33.561Z,12.00
2023-04-01T07:39:42.597Z,11.95
2023-04-01T07:43:17.626Z,12.13
2023-04-01T07:46:13.471Z,12.00
2023-04-01T07:49:29.105Z,11.30
2023-04-01T07:52:24.590Z,11.48
2023-04-01T07:55:31.699Z,11.40
2023-04-01T07:58:44.349Z,10.30
2023-04-01T08:02:07.264Z,10.55
2023-04-01T08:05:03.597Z,9.65
2023-04-01T08:08:24.535Z,9.32
2023-04-01T08:12:22.466Z,9.10
2023-04-01T08:15:24.992Z,8.90
2023-04-01T08:18:20.860Z,8.65
2023-04-01T08:21:20.522Z,9.48
2023-04-01T08:24:22.612Z,8.20
2023-04-01T08:27:21.507Z,9.63
2023-04-01T08:30:15.849Z,8.70
2023-04-01T08:33:11.817Z,8.90
2023-04-01T08:36:25.809Z,8.23
2023-04-01T08:39:39.406Z,7.88
2023-04-01T08:42:37.810Z,7.72
2023-04-01T08:45:40.902Z,7.18
2023-04-01T08:48:54.849Z,6.43
2023-04-01T08:51:43.651Z,7.30
2023-04-01T08:54:31.971Z,6.32
2023-04-01T08:57:41.698Z,6.70
2023-04-01T09:01:11.753Z,7.38
2023-04-01T09:04:16.037Z,7.28
2023-04-01T09:07:12.760Z,6.78
2023-04-01T09:10:35.541Z,8.13
2023-04-01T09:13:43.009Z,7.70
2023-04-01T09:16:57.603Z,8.52
2023-04-01T09:20:16.193Z,9.45
2023-04-01T09:23:30.364Z,8.75
2023-04-01T09:26:45.322Z,8.27
2023-04-01T09:29:47.137Z,8.80
2023-04-01T09:32:38.038Z,9.25
2023-04-01T09:35:48.315Z,9.00
2023-04-01T09:38:55.300Z,9.82
2023-04-01T09:42:16.668Z,10.02
2023-04-01T09:45:51.136Z,9.57
2023-04-01T09:48:51.703Z,8.98
2023-04-01T09:52:12.298Z,9.10
2023-04-01T09:55:03.761Z,8.23
2023-04-01T09:58:04.453Z,7.90
2023-04-01T10:01:24.281Z,7.88
2023-04-01T10:04:47.574Z,7.82
2023-04-01T10:07:39.119Z,7.20
2023-04-01T10:10:47.977Z,7.00
2023-04-01T10:13:53.950Z,7.28
2023-04-01T10:17:06.382Z,7.10
2023-04-01T10:20:18.945Z,7.72
2023-04-01T10:23:26.512Z,6.85
2023-04-01T10:26:28.585Z,6.70
2023-04-01T10:29:42.491Z,6.75
2023-04-01T10:32:46.365Z,5.75
2023-04-01T10:35:40.452Z,6.18
2023-04-01T10:38:49.025Z,7.15
2023-04-01T10:42:02.453Z,6.20
2023-04-01T10:45:23.374Z,6.43
2023-04-01T10:48:17.973Z,6.80
2023-04-01T10:51:16.872Z,6.90
2023-04-01T10:54:43.883Z,7.30
2023-04-01T10:58:27.910Z,7.07
2023-04-01T11:02:00.616Z,7.57
2023-04-01T11:05:50.644Z,7.00
2023-04-01T11:08:52.317Z,6.68
2023-04-01T11:12:04.819Z,5.75
2023-04-01T11:14:59.702Z,6.65
2023-04-01T11:18:07.580Z,7.07
2023-04-01T11:21:54.521Z,7.35
2023-04-01T11:25:05.652Z,7.97
2023-04-01T11:28:08.230Z,9.15
2023-04-01T11:31:01.360Z,9.00
2023-04-01T11:34:26.309Z,9.57
2023-04-01T11:37:36.003Z,8.77
2023-04-01T11:41:18.252Z,9.10
2023-04-01T11:44:37.866Z,9.95
2023-04-01T11:48:07.734Z,9.95
2023-04-01T11:51:21.763Z,10.15
2023-04-01T11:54:18.630Z,10.20
2023-04-01T11:57:41.633Z,10.38
2023-04-01T12:00:45.221Z,9.70
2023-04-01T12:03:52.828Z,9.50
2023-04-01T12:07:04.006Z,10.05
2023-04-01T12:10:22.945Z,9.63
2023-04-01T12:13:26.714Z,10.30
2023-04-01T12:16:31.102Z,9.57
2023-04-01T12:19:27.272Z,10.07
2023-04-01T12:22:43.370Z,10.73
2023-04-01T12:26:05.962Z,8.80
2023-04-01T12:29:29.066Z,8.10
2023-04-01T12:32:22.907Z,8.00
2023-04-01T12:35:21.949Z,7.53
2023-04-01T12:38:26.348Z,6.65
2023-04-01T12:41:38.078Z,6.95
2023-04-01T12:44:36.494Z,6.70
2023-04-01T12:47:39.366Z,6.75
2023-04-01T12:51:01.993Z,5.97
2023-04-01T12:54:25.224Z,6.05
2023-04-01T12:57:47.871Z,6.15
2023-04-01T13:01:08.838Z,6.70
2023-04-01T13:04:17.373Z,5.82
2023-04-01T13:07:14.454Z,6.93
2023-04-01T13:10:37.788Z,7.22
2023-04-01T13:13:40.673Z,7.32
2023-04-01T13:16:37.564Z,7.25
2023-04-01T13:19:39.531Z,7.68
2023-04-01T13:22:46.699Z,7.47
2023-04-01T13:26:06.961Z,6.63
2023-04-01T13:29:17.569Z,6.88
2023-04-01T13:38:33.937Z,6.85
2023-04-01T13:41:43.979Z,6.88
2023-04-01T13:44:51.250Z,7.28
2023-04-01T13:47:52.173Z,7.70
2023-04-01T13:50:43.742Z,7.38
2023-04-01T13:53:50.340Z,8.07
2023-04-01T13:57:01.064Z,7.65
2023-04-01T14:00:19.628Z,8.32
2023-04-01T14:03:41.421Z,7.63
2023-04-01T14:07:02.812Z,7.78
2023-04-01T14:10:10.362Z,8.90
2023-04-01T14:13:13.132Z,8.65
2023-04-01T14:16:21.859Z,8.20
2023-04-01T14:19:31.885Z,8.00
2023-04-01T14:22:40.545Z,8.48
2023-04-01T14:25:37.229Z,8.15
2023-04-01T14:28:42.286Z,9.00
2023-04-01T14:31:43.666Z,8.43
2023-04-01T14:35:03.916Z,8.25
2023-04-01T14:38:04.564Z,7.65
2023-04-01T14:41:07.648Z,7.80
2023-04-01T14:44:07.738Z,7.78
2023-04-01T14:47:11.690Z,8.13
2023-04-01T14:50:15.250Z,7.45
2023-04-01T14:53:13.782Z,7.80
2023-04-01T14:56:01.298Z,8.13
2023-04-01T14:58:50.409Z,8.48
2023-04-01T15:01:51.607Z,7.53
2023-04-01T15:04:58.929Z,6.93
2023-04-01T15:08:03.133Z,6.53
2023-04-01T15:11:11.708Z,6.43
2023-04-01T15:14:10.979Z,5.93
2023-04-01T15:17:14.518Z,5.90
2023-04-01T15:20:39.614Z,7.50
2023-04-01T15:23:28.183Z,7.57
2023-04-01T15:27:06.348Z,6.30
2023-04-01T15:30:10.162Z,6.78
2023-04-01T15:33:21.402Z,6.55
2023-04-01T15:36:21.316Z,5.82
2023-04-01T15:39:18.834Z,6.22
2023-04-01T15:42:17.586Z,5.30
2023-04-01T15:45:12.600Z,6.32
2023-04-01T15:48:27.113Z,6.47
2023-04-01T15:51:24.247Z,5.72
2023-04-01T15:54:33.465Z,5.38
2023-04-01T15:57:54.467Z,5.40
2023-04-01T16:01:08.694Z,5.90
2023-04-01T16:04:26.299Z,5.25
2023-04-01T16:07:27.394Z,4.82
2023-04-01T16:10:18.648Z,4.80
2023-04-01T16:13:43.831Z,4.20
2023-04-01T16:17:04.866Z,3.80
2023-04-01T16:19:56.102Z,4.20
2023-04-01T16:22:49.999Z,3.97
2023-04-01T16:25:38.493Z,4.25
2023-04-01T16:28:54.517Z,4.47
2023-04-01T16:31:56.139Z,4.10
2023-04-01T16:35:05.404Z,4.10
2023-04-01T16:38:02.860Z,4.03
2023-04-01T16:41:07.972Z,4.00
2023-04-01T16:43:59.709Z,4.07
2023-04-01T16:47:06.289Z,3.90
2023-04-01T16:49:59.906Z,4.05
2023-04-01T16:53:12.687Z,3.88
2023-04-01T16:56:09.934Z,4.50
2023-04-01T16:59:07.600Z,4.70
2023-04-01T17:02:12.356Z,4.85
2023-04-01T17:05:12.944Z,5.15
2023-04-01T17:08:23.083Z,5.03
2023-04-01T17:11:23.823Z,4.93
2023-04-01T17:14:31.816Z,4.63
2023-04-01T17:17:32.351Z,4.50
2023-04-01T17:20:38.528Z,4.90
2023-04-01T17:23:37.003Z,4.15
2023-04-01T17:27:03.966Z,4.32
2023-04-01T17:30:07.159Z,5.43
2023-04-01T17:33:10.006Z,4.22
2023-04-01T17:35:59.428Z,4.18
2023-04-01T17:38:48.062Z,4.40
2023-04-01T17:41:42.566Z,4.38
2023-04-01T17:44:51.360Z,4.65
2023-04-01T17:48:15.727Z,4.57
2023-04-01T17:51:18.532Z,4.30
2023-04-01T17:57:10.105Z,3.90
2023-04-01T18:00:13.453Z,3.80
2023-04-01T18:03:17.660Z,3.47
2023-04-01T18:06:18.788Z,3.70
2023-04-01T18:09:48.630Z,3.95
2023-04-01T18:12:58.758Z,3.83
2023-04-01T18:16:09.006Z,4.07
2023-04-01T18:19:12.727Z,3.97
2023-04-01T18:22:14.009Z,3.70
2023-04-01T18:25:08.453Z,4.20
2023-04-01T18:28:19.852Z,4.20
2023-04-01T18:31:07.234Z,4.30
2023-04-01T18:33:55.980Z,4.45
2023-04-01T18:36:57.515Z,5.13
2023-04-01T18:39:49.787Z,4.70
2023-04-01T18:45:49.267Z,5.18
2023-04-01T18:48:42.548Z,4.80
2023-04-01T18:51:50.604Z,4.60
2023-04-01T18:55:16.380Z,5.30
2023-04-01T18:58:23.684Z,5.47
2023-04-01T19:01:26.522Z,5.60
2023-04-01T19:04:24.599Z,5.40
2023-04-01T19:07:51.189Z,4.88
2023-04-01T19:11:14.387Z,4.18
2023-04-01T19:14:12.724Z,4.10
2023-04-01T19:17:22.011Z,4.18
2023-04-01T19:20:16.308Z,4.80
2023-04-01T19:23:29.443Z,5.90
2023-04-01T19:26:43.554Z,5.60
2023-04-01T19:29:38.337Z,5.63
2023-04-01T19:32:51.853Z,5.45
2023-04-01T19:35:43.048Z,5.25
2023-04-01T19:38:28.224Z,5.70
2023-04-01T19:41:41.702Z,4.55
2023-04-01T19:44:50.222Z,4.90
2023-04-01T19:48:10.059Z,5.07
2023-04-01T19:51:23.563Z,4.95
2023-04-01T19:54:36.709Z,5.43
2023-04-01T19:57:49.239Z,5.90
2023-04-01T20:00:40.951Z,6.07
2023-04-01T20:03:43.088Z,6.32
2023-04-01T20:06:38.588Z,5.47
2023-04-01T20:09:57.270Z,5.50
2023-04-01T20:13:02.937Z,5.10
2023-04-01T20:16:07.761Z,4.68
2023-04-01T20:18:58.327Z,5.18
2023-04-01T20:21:47.503Z,4.40
2023-04-01T20:24:43.371Z,4.72
2023-04-01T20:27:35.762Z,4.70
2023-04-01T20:33:50.915Z,4.85
2023-04-01T20:36:59.077Z,5.10
2023-04-01T20:40:34.349Z,5.15
2023-04-01T20:44:01.079Z,4.50
2023-04-01T20:46:53.246Z,4.40
2023-04-01T20:49:55.692Z,5.30
2023-04-01T20:53:16.364Z,5.03
2023-04-01T20:56:16.199Z,4.68
2023-04-01T20:59:32.914Z,4.28
2023-04-01T21:02:57.831Z,4.68
2023-04-01T21:06:18.445Z,5.30
2023-04-01T21:09:11.683Z,6.38
2023-04-01T21:12:00.145Z,6.45
2023-04-01T21:15:04.109Z,6.40
2023-04-01T21:18:11.564Z,6.85
2023-04-01T21:21:12.808Z,7.20
2023-04-01T21:24:08.799Z,7.35
2023-04-01T21:27:21.362Z,6.55
2023-04-01T21:30:33.170Z,7.80
2023-04-01T21:33:37.440Z,7.35
2023-04-01T21:36:44.135Z,7.75
2023-04-01T21:39:57.357Z,7.15
2023-04-01T21:42:58.399Z,7.03
2023-04-01T21:46:08.580Z,6.93
2023-04-01T21:49:08.291Z,7.82
2023-04-01T21:52:21.154Z,7.07
2023-04-01T21:55:46.283Z,7.20
2023-04-01T21:59:00.265Z,7.03
2023-04-01T22:02:30.146Z,6.57
2023-04-01T22:05:46.235Z,7.35
2023-04-01T22:08:53.225Z,7.72
2023-04-01T22:11:50.409Z,7.70
2023-04-01T22:14:54.167Z,7.70
2023-04-01T22:17:52.793Z,8.55
2023-04-01T22:20:47.889Z,8.50
2023-04-01T22:24:00.952Z,8.18
2023-04-01T22:29:50.051Z,7.55
2023-04-01T22:32:46.249Z,7.93
2023-04-01T22:35:44.635Z,8.02
2023-04-01T22:38:39.251Z,8.70
2023-04-01T22:41:37.669Z,8.90
2023-04-01T22:44:44.311Z,8.30
2023-04-01T22:48:03.561Z,8.38
2023-04-01T22:51:02.007Z,8.55
2023-04-01T22:54:05.954Z,8.10
2023-04-01T22:57:00.600Z,8.48
2023-04-01T23:00:10.641Z,8.70
2023-04-01T23:03:05.849Z,8.23
2023-04-01T23:05:57.226Z,8.50
2023-04-01T23:09:09.378Z,8.55
2023-04-01T23:11:59.604Z,9.75
2023-04-01T23:14:50.286Z,8.38
2023-04-01T23:18:06.683Z,8.77
2023-04-01T23:21:03.929Z,8.13
2023-04-01T23:24:04.071Z,8.70
2023-04-01T23:26:56.225Z,8.23
2023-04-01T23:29:43.513Z,9.02
2023-04-01T23:32:29.014Z,8.02
2023-04-01T23:35:17.978Z,7.47
2023-04-01T23:38:03.544Z,7.38
2023-04-01T23:40:51.145Z,7.80
2023-04-01T23:43:41.785Z,7.28
2023-04-01T23:46:27.895Z,7.53
2023-04-01T23:49:24.903Z,7.43
2023-04-01T23:52:13.190Z,6.90
2023-04-01T23:55:15.027Z,6.82
2023-04-01T23:58:06.695Z,7.43
